sensor_id;sensor_type;location;lat;lon;timestamp;P1;durP1;ratioP1;P2;durP2;ratioP2
18623;SDS011;9441;51.420;7.036;2022-12-29T00:00:04;2.47;;;1.77;;
18623;SDS011;9441;51.420;7.036;2022-12-29T00:01:14;3.30;;;1.90;;
18623;SDS011;9441;51.420;7.036;2022-12-29T00:02:16;2.17;;;1.47;;
18623;SDS011;9441;51.420;7.036;2022-12-29T00:03:20;5.40;;;1.90;;
18623;SDS011;9441;51.420;7.036;2022-12-29T00:04:22;2.10;;;1.70;;
18623;SDS011;9441;51.420;7.036;2022-12-29T00:05:26;3.87;;;1.77;;
18623;SDS011;9441;51.420;7.036;2022-12-29T00:06:29;2.17;;;1.80;;
18623;SDS011;9441;51.420;7.036;2022-12-29T00:07:33;2.83;;;2.00;;
18623;SDS011;9441;51.420;7.036;2022-12-29T00:08:36;2.10;;;1.90;;
18623;SDS011;9441;51.420;7.036;2022-12-29T00:09:42;4.23;;;1.73;;
18623;SDS011;9441;51.420;7.036;2022-12-29T00:10:45;1.77;;;1.67;;
18623;SDS011;9441;51.420;7.036;2022-12-29T00:11:51;4.03;;;1.77;;
18623;SDS011;9441;51.420;7.036;2022-12-29T00:12:53;2.60;;;2.10;;
18623;SDS011;9441;51.420;7.036;2022-12-29T00:14:14;3.80;;;1.80;;
18623;SDS011;9441;51.420;7.036;2022-12-29T00:15:35;2.30;;;1.90;;
18623;SDS011;9441;51.420;7.036;2022-12-29T00:16:40;5.27;;;2.10;;
18623;SDS011;9441;51.420;7.036;2022-12-29T00:17:43;2.40;;;2.00;;
18623;SDS011;9441;51.420;7.036;2022-12-29T00:18:45;2.73;;;2.43;;
18623;SDS011;9441;51.420;7.036;2022-12-29T00:19:46;2.47;;;2.10;;
18623;SDS011;9441;51.420;7.036;2022-12-29T00:21:05;3.87;;;2.30;;
18623;SDS011;9441;51.420;7.036;2022-12-29T00:22:26;2.27;;;1.83;;
18623;SDS011;9441;51.420;7.036;2022-12-29T00:23:45;2.97;;;2.10;;
18623;SDS011;9441;51.420;7.036;2022-12-29T00:25:07;2.40;;;2.10;;
18623;SDS011;9441;51.420;7.036;2022-12-29T00:26:28;4.70;;;2.30;;
18623;SDS011;9441;51.420;7.036;2022-12-29T00:27:47;3.37;;;2.20;;
18623;SDS011;9441;51.420;7.036;2022-12-29T00:29:07;4.73;;;2.10;;
18623;SDS011;9441;51.420;7.036;2022-12-29T00:30:29;2.63;;;2.00;;
18623;SDS011;9441;51.420;7.036;2022-12-29T00:31:48;2.50;;;2.00;;
18623;SDS011;9441;51.420;7.036;2022-12-29T00:33:08;2.07;;;1.87;;
18623;SDS011;9441;51.420;7.036;2022-12-29T00:34:29;2.90;;;2.13;;
18623;SDS011;9441;51.420;7.036;2022-12-29T00:35:51;2.70;;;2.17;;
18623;SDS011;9441;51.420;7.036;2022-12-29T00:36:55;3.37;;;2.50;;
18623;SDS011;9441;51.420;7.036;2022-12-29T00:37:58;3.87;;;2.13;;
18623;SDS011;9441;51.420;7.036;2022-12-29T00:39:20;4.50;;;2.30;;
18623;SDS011;9441;51.420;7.036;2022-12-29T00:40:51;3.43;;;2.00;;
18623;SDS011;9441;51.420;7.036;2022-12-29T00:42:11;3.70;;;2.37;;
18623;SDS011;9441;51.420;7.036;2022-12-29T00:43:32;5.63;;;2.30;;
18623;SDS011;9441;51.420;7.036;2022-12-29T00:44:52;6.27;;;2.20;;
18623;SDS011;9441;51.420;7.036;2022-12-29T00:45:55;2.67;;;2.00;;
18623;SDS011;9441;51.420;7.036;2022-12-29T00:46:56;3.63;;;1.83;;
18623;SDS011;9441;51.420;7.036;2022-12-29T00:48:02;2.27;;;2.00;;
18623;SDS011;9441;51.420;7.036;2022-12-29T00:49:04;2.10;;;1.90;;
18623;SDS011;9441;51.420;7.036;2022-12-29T00:50:24;2.27;;;1.90;;
18623;SDS011;9441;51.420;7.036;2022-12-29T00:51:26;3.77;;;2.13;;
18623;SDS011;9441;51.420;7.036;2022-12-29T00:52:27;3.40;;;2.10;;
18623;SDS011;9441;51.420;7.036;2022-12-29T00:53:29;2.17;;;1.60;;
18623;SDS011;9441;51.420;7.036;2022-12-29T00:54:31;3.43;;;1.90;;
18623;SDS011;9441;51.420;7.036;2022-12-29T00:55:36;3.90;;;1.70;;
18623;SDS011;9441;51.420;7.036;2022-12-29T00:56:37;2.30;;;2.03;;
18623;SDS011;9441;51.420;7.036;2022-12-29T00:57:39;2.63;;;2.10;;
18623;SDS011;9441;51.420;7.036;2022-12-29T00:58:41;4.83;;;2.00;;
18623;SDS011;9441;51.420;7.036;2022-12-29T00:59:42;5.73;;;2.00;;
18623;SDS011;9441;51.420;7.036;2022-12-29T01:00:45;4.07;;;2.20;;
18623;SDS011;9441;51.420;7.036;2022-12-29T01:01:47;3.97;;;2.00;;
18623;SDS011;9441;51.420;7.036;2022-12-29T01:02:50;2.47;;;1.77;;
18623;SDS011;9441;51.420;7.036;2022-12-29T01:03:51;3.73;;;1.93;;
18623;SDS011;9441;51.420;7.036;2022-12-29T01:04:53;2.10;;;1.90;;
18623;SDS011;9441;51.420;7.036;2022-12-29T01:05:56;4.00;;;1.90;;
18623;SDS011;9441;51.420;7.036;2022-12-29T01:07:00;2.20;;;1.60;;
18623;SDS011;9441;51.420;7.036;2022-12-29T01:08:02;4.60;;;1.83;;
18623;SDS011;9441;51.420;7.036;2022-12-29T01:09:04;2.13;;;1.90;;
18623;SDS011;9441;51.420;7.036;2022-12-29T01:10:24;1.70;;;1.60;;
18623;SDS011;9441;51.420;7.036;2022-12-29T01:11:27;2.03;;;1.67;;
18623;SDS011;9441;51.420;7.036;2022-12-29T01:12:29;1.63;;;1.53;;
18623;SDS011;9441;51.420;7.036;2022-12-29T01:13:45;2.60;;;1.70;;
18623;SDS011;9441;51.420;7.036;2022-12-29T01:14:47;3.67;;;1.70;;
18623;SDS011;9441;51.420;7.036;2022-12-29T01:15:49;2.80;;;1.87;;
18623;SDS011;9441;51.420;7.036;2022-12-29T01:16:54;1.70;;;1.60;;
18623;SDS011;9441;51.420;7.036;2022-12-29T01:17:55;3.83;;;1.87;;
18623;SDS011;9441;51.420;7.036;2022-12-29T01:18:58;3.00;;;1.80;;
18623;SDS011;9441;51.420;7.036;2022-12-29T01:19:59;1.63;;;1.50;;
18623;SDS011;9441;51.420;7.036;2022-12-29T01:21:02;1.90;;;1.70;;
18623;SDS011;9441;51.420;7.036;2022-12-29T01:22:04;2.03;;;1.70;;
18623;SDS011;9441;51.420;7.036;2022-12-29T01:23:06;3.37;;;1.60;;
18623;SDS011;9441;51.420;7.036;2022-12-29T01:24:07;1.70;;;1.60;;
18623;SDS011;9441;51.420;7.036;2022-12-29T01:25:09;1.50;;;1.40;;
18623;SDS011;9441;51.420;7.036;2022-12-29T01:26:12;4.20;;;1.60;;
18623;SDS011;9441;51.420;7.036;2022-12-29T01:27:14;2.33;;;1.30;;
18623;SDS011;9441;51.420;7.036;2022-12-29T01:28:16;1.33;;;1.17;;
18623;SDS011;9441;51.420;7.036;2022-12-29T01:29:18;1.60;;;1.40;;
18623;SDS011;9441;51.420;7.036;2022-12-29T01:30:20;2.73;;;1.77;;
18623;SDS011;9441;51.420;7.036;2022-12-29T01:31:21;4.23;;;1.60;;
18623;SDS011;9441;51.420;7.036;2022-12-29T01:32:24;1.50;;;1.40;;
18623;SDS011;9441;51.420;7.036;2022-12-29T01:33:25;2.13;;;1.53;;
18623;SDS011;9441;51.420;7.036;2022-12-29T01:34:27;4.40;;;1.60;;
18623;SDS011;9441;51.420;7.036;2022-12-29T01:35:29;1.67;;;1.50;;
18623;SDS011;9441;51.420;7.036;2022-12-29T01:36:32;1.67;;;1.47;;
18623;SDS011;9441;51.420;7.036;2022-12-29T01:37:33;4.07;;;1.30;;
18623;SDS011;9441;51.420;7.036;2022-12-29T01:38:36;1.93;;;1.37;;
18623;SDS011;9441;51.420;7.036;2022-12-29T01:39:38;2.07;;;1.73;;
18623;SDS011;9441;51.420;7.036;2022-12-29T01:40:44;2.43;;;1.67;;
18623;SDS011;9441;51.420;7.036;2022-12-29T01:41:46;2.00;;;1.40;;
18623;SDS011;9441;51.420;7.036;2022-12-29T01:42:48;2.00;;;1.33;;
18623;SDS011;9441;51.420;7.036;2022-12-29T01:43:50;2.13;;;1.30;;
18623;SDS011;9441;51.420;7.036;2022-12-29T01:44:55;1.50;;;1.40;;
18623;SDS011;9441;51.420;7.036;2022-12-29T01:45:58;2.63;;;1.20;;
18623;SDS011;9441;51.420;7.036;2022-12-29T01:46:59;1.50;;;1.20;;
18623;SDS011;9441;51.420;7.036;2022-12-29T01:48:03;1.43;;;1.17;;
18623;SDS011;9441;51.420;7.036;2022-12-29T01:49:09;2.07;;;1.03;;
18623;SDS011;9441;51.420;7.036;2022-12-29T01:50:14;2.43;;;1.00;;
18623;SDS011;9441;51.420;7.036;2022-12-29T01:51:21;2.80;;;1.10;;
18623;SDS011;9441;51.420;7.036;2022-12-29T01:52:24;1.70;;;0.90;;
18623;SDS011;9441;51.420;7.036;2022-12-29T01:53:30;2.87;;;1.00;;
18623;SDS011;9441;51.420;7.036;2022-12-29T01:54:35;4.33;;;1.00;;
18623;SDS011;9441;51.420;7.036;2022-12-29T01:55:40;3.60;;;1.30;;
18623;SDS011;9441;51.420;7.036;2022-12-29T01:56:46;1.13;;;1.03;;
18623;SDS011;9441;51.420;7.036;2022-12-29T01:57:49;1.37;;;0.93;;
18623;SDS011;9441;51.420;7.036;2022-12-29T01:58:55;1.73;;;1.03;;
18623;SDS011;9441;51.420;7.036;2022-12-29T02:00:02;2.50;;;1.00;;
18623;SDS011;9441;51.420;7.036;2022-12-29T02:01:15;1.97;;;1.30;;
18623;SDS011;9441;51.420;7.036;2022-12-29T02:02:18;1.20;;;1.10;;
18623;SDS011;9441;51.420;7.036;2022-12-29T02:03:22;1.20;;;0.80;;
18623;SDS011;9441;51.420;7.036;2022-12-29T02:04:35;2.77;;;0.90;;
18623;SDS011;9441;51.420;7.036;2022-12-29T02:05:43;0.80;;;0.80;;
18623;SDS011;9441;51.420;7.036;2022-12-29T02:06:51;1.57;;;1.00;;
18623;SDS011;9441;51.420;7.036;2022-12-29T02:07:54;2.43;;;1.03;;
18623;SDS011;9441;51.420;7.036;2022-12-29T02:08:56;1.23;;;0.90;;
18623;SDS011;9441;51.420;7.036;2022-12-29T02:09:58;2.73;;;0.80;;
18623;SDS011;9441;51.420;7.036;2022-12-29T02:11:01;2.30;;;1.00;;
18623;SDS011;9441;51.420;7.036;2022-12-29T02:12:08;1.10;;;1.00;;
18623;SDS011;9441;51.420;7.036;2022-12-29T02:13:10;1.90;;;0.87;;
18623;SDS011;9441;51.420;7.036;2022-12-29T02:14:13;2.33;;;0.90;;
18623;SDS011;9441;51.420;7.036;2022-12-29T02:15:14;0.97;;;0.87;;
18623;SDS011;9441;51.420;7.036;2022-12-29T02:16:25;2.67;;;1.00;;
18623;SDS011;9441;51.420;7.036;2022-12-29T02:17:59;1.87;;;0.70;;
18623;SDS011;9441;51.420;7.036;2022-12-29T02:19:22;2.70;;;0.90;;
18623;SDS011;9441;51.420;7.036;2022-12-29T02:21:07;1.70;;;0.80;;
18623;SDS011;9441;51.420;7.036;2022-12-29T02:22:30;1.23;;;0.67;;
18623;SDS011;9441;51.420;7.036;2022-12-29T02:25:30;1.33;;;0.73;;
18623;SDS011;9441;51.420;7.036;2022-12-29T02:26:58;1.87;;;0.93;;
18623;SDS011;9441;51.420;7.036;2022-12-29T02:28:25;1.33;;;0.90;;
18623;SDS011;9441;51.420;7.036;2022-12-29T02:29:46;1.43;;;1.00;;
18623;SDS011;9441;51.420;7.036;2022-12-29T02:31:07;1.10;;;1.00;;
18623;SDS011;9441;51.420;7.036;2022-12-29T02:32:19;1.30;;;1.00;;
18623;SDS011;9441;51.420;7.036;2022-12-29T02:33:30;3.13;;;1.00;;
18623;SDS011;9441;51.420;7.036;2022-12-29T02:34:45;1.40;;;1.10;;
18623;SDS011;9441;51.420;7.036;2022-12-29T02:35:56;1.93;;;1.20;;
18623;SDS011;9441;51.420;7.036;2022-12-29T02:37:03;1.30;;;0.93;;
18623;SDS011;9441;51.420;7.036;2022-12-29T02:38:11;2.57;;;1.10;;
18623;SDS011;9441;51.420;7.036;2022-12-29T02:39:20;1.63;;;1.10;;
18623;SDS011;9441;51.420;7.036;2022-12-29T02:40:31;2.10;;;1.00;;
18623;SDS011;9441;51.420;7.036;2022-12-29T02:41:42;1.43;;;1.17;;
18623;SDS011;9441;51.420;7.036;2022-12-29T02:42:58;3.53;;;1.20;;
18623;SDS011;9441;51.420;7.036;2022-12-29T02:44:04;1.33;;;1.10;;
18623;SDS011;9441;51.420;7.036;2022-12-29T02:45:15;2.80;;;1.20;;
18623;SDS011;9441;51.420;7.036;2022-12-29T02:46:25;2.40;;;1.20;;
18623;SDS011;9441;51.420;7.036;2022-12-29T02:47:36;2.63;;;0.90;;
18623;SDS011;9441;51.420;7.036;2022-12-29T02:48:42;3.47;;;1.17;;
18623;SDS011;9441;51.420;7.036;2022-12-29T02:49:48;2.47;;;1.10;;
18623;SDS011;9441;51.420;7.036;2022-12-29T02:50:56;1.67;;;1.10;;
18623;SDS011;9441;51.420;7.036;2022-12-29T02:52:01;6.43;;;1.30;;
18623;SDS011;9441;51.420;7.036;2022-12-29T02:53:05;2.27;;;1.00;;
18623;SDS011;9441;51.420;7.036;2022-12-29T02:54:10;3.03;;;1.67;;
18623;SDS011;9441;51.420;7.036;2022-12-29T02:55:30;2.37;;;1.40;;
18623;SDS011;9441;51.420;7.036;2022-12-29T02:56:31;1.70;;;1.17;;
18623;SDS011;9441;51.420;7.036;2022-12-29T02:57:32;3.20;;;1.20;;
18623;SDS011;9441;51.420;7.036;2022-12-29T02:58:36;3.50;;;1.37;;
18623;SDS011;9441;51.420;7.036;2022-12-29T02:59:37;2.60;;;1.30;;
18623;SDS011;9441;51.420;7.036;2022-12-29T03:00:41;2.40;;;1.47;;
18623;SDS011;9441;51.420;7.036;2022-12-29T03:01:59;3.53;;;1.20;;
18623;SDS011;9441;51.420;7.036;2022-12-29T03:03:20;1.10;;;1.00;;
18623;SDS011;9441;51.420;7.036;2022-12-29T03:04:31;3.33;;;1.17;;
18623;SDS011;9441;51.420;7.036;2022-12-29T03:07:17;3.40;;;1.33;;
18623;SDS011;9441;51.420;7.036;2022-12-29T03:08:28;1.53;;;1.20;;
18623;SDS011;9441;51.420;7.036;2022-12-29T03:09:40;5.13;;;1.20;;
18623;SDS011;9441;51.420;7.036;2022-12-29T03:10:48;3.33;;;1.20;;
18623;SDS011;9441;51.420;7.036;2022-12-29T03:11:58;3.27;;;1.00;;
18623;SDS011;9441;51.420;7.036;2022-12-29T03:13:12;2.00;;;1.13;;
18623;SDS011;9441;51.420;7.036;2022-12-29T03:14:44;5.63;;;1.40;;
18623;SDS011;9441;51.420;7.036;2022-12-29T03:16:14;1.30;;;1.10;;
18623;SDS011;9441;51.420;7.036;2022-12-29T03:17:26;1.30;;;1.20;;
18623;SDS011;9441;51.420;7.036;2022-12-29T03:18:37;1.53;;;1.00;;
18623;SDS011;9441;51.420;7.036;2022-12-29T03:19:44;1.57;;;0.90;;
18623;SDS011;9441;51.420;7.036;2022-12-29T03:20:52;2.83;;;1.10;;
18623;SDS011;9441;51.420;7.036;2022-12-29T03:21:57;8.10;;;1.20;;
18623;SDS011;9441;51.420;7.036;2022-12-29T03:23:27;1.70;;;0.90;;
18623;SDS011;9441;51.420;7.036;2022-12-29T03:24:31;2.83;;;1.10;;
18623;SDS011;9441;51.420;7.036;2022-12-29T03:25:37;3.47;;;1.30;;
18623;SDS011;9441;51.420;7.036;2022-12-29T03:26:44;2.33;;;1.27;;
18623;SDS011;9441;51.420;7.036;2022-12-29T03:27:48;1.70;;;1.10;;
18623;SDS011;9441;51.420;7.036;2022-12-29T03:28:54;1.03;;;0.93;;
18623;SDS011;9441;51.420;7.036;2022-12-29T03:30:00;2.13;;;0.80;;
18623;SDS011;9441;51.420;7.036;2022-12-29T03:31:05;2.20;;;1.10;;
18623;SDS011;9441;51.420;7.036;2022-12-29T03:32:08;1.33;;;0.83;;
18623;SDS011;9441;51.420;7.036;2022-12-29T03:33:16;1.77;;;0.87;;
18623;SDS011;9441;51.420;7.036;2022-12-29T03:34:21;2.67;;;1.00;;
18623;SDS011;9441;51.420;7.036;2022-12-29T03:35:26;1.33;;;0.83;;
18623;SDS011;9441;51.420;7.036;2022-12-29T03:36:38;2.67;;;1.00;;
18623;SDS011;9441;51.420;7.036;2022-12-29T03:37:47;1.13;;;1.00;;
18623;SDS011;9441;51.420;7.036;2022-12-29T03:38:53;2.27;;;1.00;;
18623;SDS011;9441;51.420;7.036;2022-12-29T03:40:00;2.83;;;0.90;;
18623;SDS011;9441;51.420;7.036;2022-12-29T03:41:03;1.57;;;1.20;;
18623;SDS011;9441;51.420;7.036;2022-12-29T03:42:09;2.70;;;1.10;;
18623;SDS011;9441;51.420;7.036;2022-12-29T03:43:14;2.57;;;0.90;;
18623;SDS011;9441;51.420;7.036;2022-12-29T03:44:18;1.20;;;1.03;;
18623;SDS011;9441;51.420;7.036;2022-12-29T03:45:20;2.10;;;0.97;;
18623;SDS011;9441;51.420;7.036;2022-12-29T03:46:22;2.67;;;1.00;;
18623;SDS011;9441;51.420;7.036;2022-12-29T03:47:23;4.07;;;1.13;;
18623;SDS011;9441;51.420;7.036;2022-12-29T03:48:27;2.77;;;1.00;;
18623;SDS011;9441;51.420;7.036;2022-12-29T03:49:29;2.00;;;1.10;;
18623;SDS011;9441;51.420;7.036;2022-12-29T03:50:31;3.53;;;1.13;;
18623;SDS011;9441;51.420;7.036;2022-12-29T03:51:32;1.90;;;1.30;;
18623;SDS011;9441;51.420;7.036;2022-12-29T03:52:35;1.30;;;0.97;;
18623;SDS011;9441;51.420;7.036;2022-12-29T03:53:38;1.80;;;1.00;;
18623;SDS011;9441;51.420;7.036;2022-12-29T03:54:40;2.33;;;0.97;;
18623;SDS011;9441;51.420;7.036;2022-12-29T03:55:41;1.13;;;1.00;;
18623;SDS011;9441;51.420;7.036;2022-12-29T03:56:44;2.37;;;1.17;;
18623;SDS011;9441;51.420;7.036;2022-12-29T03:57:48;3.03;;;1.30;;
18623;SDS011;9441;51.420;7.036;2022-12-29T03:58:56;2.53;;;1.07;;
18623;SDS011;9441;51.420;7.036;2022-12-29T04:00:04;1.00;;;0.90;;
18623;SDS011;9441;51.420;7.036;2022-12-29T04:01:15;1.93;;;1.00;;
18623;SDS011;9441;51.420;7.036;2022-12-29T04:02:17;1.20;;;0.90;;
18623;SDS011;9441;51.420;7.036;2022-12-29T04:03:19;2.80;;;0.90;;
18623;SDS011;9441;51.420;7.036;2022-12-29T04:04:22;0.60;;;0.60;;
18623;SDS011;9441;51.420;7.036;2022-12-29T04:05:24;1.20;;;0.80;;
18623;SDS011;9441;51.420;7.036;2022-12-29T04:06:28;1.50;;;1.00;;
18623;SDS011;9441;51.420;7.036;2022-12-29T04:07:39;2.10;;;0.83;;
18623;SDS011;9441;51.420;7.036;2022-12-29T04:08:40;1.77;;;0.80;;
18623;SDS011;9441;51.420;7.036;2022-12-29T04:09:42;1.10;;;0.93;;
18623;SDS011;9441;51.420;7.036;2022-12-29T04:10:47;2.23;;;0.90;;
18623;SDS011;9441;51.420;7.036;2022-12-29T04:11:51;0.87;;;0.70;;
18623;SDS011;9441;51.420;7.036;2022-12-29T04:12:53;1.73;;;0.97;;
18623;SDS011;9441;51.420;7.036;2022-12-29T04:13:56;1.37;;;0.70;;
18623;SDS011;9441;51.420;7.036;2022-12-29T04:14:59;1.37;;;0.83;;
18623;SDS011;9441;51.420;7.036;2022-12-29T04:16:01;0.77;;;0.70;;
18623;SDS011;9441;51.420;7.036;2022-12-29T04:17:02;0.87;;;0.67;;
18623;SDS011;9441;51.420;7.036;2022-12-29T04:18:04;2.33;;;0.80;;
18623;SDS011;9441;51.420;7.036;2022-12-29T04:19:07;1.27;;;0.77;;
18623;SDS011;9441;51.420;7.036;2022-12-29T04:20:12;1.80;;;0.90;;
18623;SDS011;9441;51.420;7.036;2022-12-29T04:21:33;1.30;;;0.83;;
18623;SDS011;9441;51.420;7.036;2022-12-29T04:22:35;3.43;;;0.83;;
18623;SDS011;9441;51.420;7.036;2022-12-29T04:23:37;1.73;;;0.63;;
18623;SDS011;9441;51.420;7.036;2022-12-29T04:24:41;0.93;;;0.70;;
18623;SDS011;9441;51.420;7.036;2022-12-29T04:25:45;2.60;;;1.00;;
18623;SDS011;9441;51.420;7.036;2022-12-29T04:26:48;2.17;;;0.80;;
18623;SDS011;9441;51.420;7.036;2022-12-29T04:28:07;0.80;;;0.80;;
18623;SDS011;9441;51.420;7.036;2022-12-29T04:29:27;1.80;;;0.73;;
18623;SDS011;9441;51.420;7.036;2022-12-29T04:30:58;0.70;;;0.70;;
18623;SDS011;9441;51.420;7.036;2022-12-29T04:32:08;0.87;;;0.70;;
18623;SDS011;9441;51.420;7.036;2022-12-29T04:33:14;1.10;;;0.83;;
18623;SDS011;9441;51.420;7.036;2022-12-29T04:34:17;1.77;;;0.70;;
18623;SDS011;9441;51.420;7.036;2022-12-29T04:35:20;2.73;;;0.67;;
18623;SDS011;9441;51.420;7.036;2022-12-29T04:36:23;1.57;;;1.00;;
18623;SDS011;9441;51.420;7.036;2022-12-29T04:37:24;1.13;;;0.80;;
18623;SDS011;9441;51.420;7.036;2022-12-29T04:38:26;2.90;;;0.83;;
18623;SDS011;9441;51.420;7.036;2022-12-29T04:39:28;1.37;;;0.70;;
18623;SDS011;9441;51.420;7.036;2022-12-29T04:40:29;1.07;;;0.73;;
18623;SDS011;9441;51.420;7.036;2022-12-29T04:41:31;2.10;;;0.77;;
18623;SDS011;9441;51.420;7.036;2022-12-29T04:42:33;1.87;;;0.80;;
18623;SDS011;9441;51.420;7.036;2022-12-29T04:43:35;1.30;;;0.70;;
18623;SDS011;9441;51.420;7.036;2022-12-29T04:44:55;0.80;;;0.70;;
18623;SDS011;9441;51.420;7.036;2022-12-29T04:46:20;1.17;;;0.87;;
18623;SDS011;9441;51.420;7.036;2022-12-29T04:47:39;1.77;;;0.80;;
18623;SDS011;9441;51.420;7.036;2022-12-29T04:49:00;1.17;;;0.80;;
18623;SDS011;9441;51.420;7.036;2022-12-29T04:50:30;0.73;;;0.73;;
18623;SDS011;9441;51.420;7.036;2022-12-29T04:51:51;1.47;;;0.67;;
18623;SDS011;9441;51.420;7.036;2022-12-29T04:52:54;2.30;;;0.70;;
18623;SDS011;9441;51.420;7.036;2022-12-29T04:53:55;0.73;;;0.70;;
18623;SDS011;9441;51.420;7.036;2022-12-29T04:54:59;1.87;;;0.70;;
18623;SDS011;9441;51.420;7.036;2022-12-29T04:56:00;1.37;;;0.70;;
18623;SDS011;9441;51.420;7.036;2022-12-29T04:57:02;3.13;;;0.87;;
18623;SDS011;9441;51.420;7.036;2022-12-29T04:58:03;4.73;;;0.90;;
18623;SDS011;9441;51.420;7.036;2022-12-29T04:59:07;2.00;;;1.00;;
18623;SDS011;9441;51.420;7.036;2022-12-29T05:00:09;1.27;;;0.80;;
18623;SDS011;9441;51.420;7.036;2022-12-29T05:01:12;2.37;;;0.87;;
18623;SDS011;9441;51.420;7.036;2022-12-29T05:02:13;2.83;;;0.80;;
18623;SDS011;9441;51.420;7.036;2022-12-29T05:03:15;2.00;;;0.90;;
18623;SDS011;9441;51.420;7.036;2022-12-29T05:04:17;0.97;;;0.73;;
18623;SDS011;9441;51.420;7.036;2022-12-29T05:05:19;1.83;;;1.17;;
18623;SDS011;9441;51.420;7.036;2022-12-29T05:06:24;1.10;;;0.90;;
18623;SDS011;9441;51.420;7.036;2022-12-29T05:07:26;4.93;;;0.90;;
18623;SDS011;9441;51.420;7.036;2022-12-29T05:08:28;2.10;;;0.70;;
18623;SDS011;9441;51.420;7.036;2022-12-29T05:09:33;1.17;;;1.00;;
18623;SDS011;9441;51.420;7.036;2022-12-29T05:10:35;1.17;;;0.70;;
18623;SDS011;9441;51.420;7.036;2022-12-29T05:11:42;1.03;;;0.70;;
18623;SDS011;9441;51.420;7.036;2022-12-29T05:12:44;2.97;;;0.90;;
18623;SDS011;9441;51.420;7.036;2022-12-29T05:13:47;1.63;;;0.80;;
18623;SDS011;9441;51.420;7.036;2022-12-29T05:14:50;2.60;;;0.77;;
18623;SDS011;9441;51.420;7.036;2022-12-29T05:15:53;1.60;;;0.90;;
18623;SDS011;9441;51.420;7.036;2022-12-29T05:16:56;1.13;;;0.77;;
18623;SDS011;9441;51.420;7.036;2022-12-29T05:17:59;3.43;;;0.80;;
18623;SDS011;9441;51.420;7.036;2022-12-29T05:19:01;1.07;;;0.77;;
18623;SDS011;9441;51.420;7.036;2022-12-29T05:20:05;3.47;;;0.80;;
18623;SDS011;9441;51.420;7.036;2022-12-29T05:21:07;3.07;;;0.80;;
18623;SDS011;9441;51.420;7.036;2022-12-29T05:22:13;4.47;;;0.73;;
18623;SDS011;9441;51.420;7.036;2022-12-29T05:23:15;2.80;;;1.10;;
18623;SDS011;9441;51.420;7.036;2022-12-29T05:24:18;0.70;;;0.70;;
18623;SDS011;9441;51.420;7.036;2022-12-29T05:25:20;5.27;;;0.97;;
18623;SDS011;9441;51.420;7.036;2022-12-29T05:26:28;1.93;;;1.40;;
18623;SDS011;9441;51.420;7.036;2022-12-29T05:27:37;0.77;;;0.67;;
18623;SDS011;9441;51.420;7.036;2022-12-29T05:28:55;3.30;;;0.93;;
18623;SDS011;9441;51.420;7.036;2022-12-29T05:29:57;0.80;;;0.70;;
18623;SDS011;9441;51.420;7.036;2022-12-29T05:30:58;1.33;;;0.87;;
18623;SDS011;9441;51.420;7.036;2022-12-29T05:32:01;4.23;;;0.97;;
18623;SDS011;9441;51.420;7.036;2022-12-29T05:33:03;1.90;;;0.80;;
18623;SDS011;9441;51.420;7.036;2022-12-29T05:34:06;3.83;;;0.90;;
18623;SDS011;9441;51.420;7.036;2022-12-29T05:35:09;2.13;;;0.87;;
18623;SDS011;9441;51.420;7.036;2022-12-29T05:36:11;5.97;;;1.00;;
18623;SDS011;9441;51.420;7.036;2022-12-29T05:37:18;1.63;;;0.90;;
18623;SDS011;9441;51.420;7.036;2022-12-29T05:38:20;1.40;;;1.10;;
18623;SDS011;9441;51.420;7.036;2022-12-29T05:39:21;1.67;;;0.90;;
18623;SDS011;9441;51.420;7.036;2022-12-29T05:40:28;1.67;;;0.90;;
18623;SDS011;9441;51.420;7.036;2022-12-29T05:41:34;1.17;;;1.00;;
18623;SDS011;9441;51.420;7.036;2022-12-29T05:43:15;3.37;;;1.00;;
18623;SDS011;9441;51.420;7.036;2022-12-29T05:44:40;1.37;;;0.70;;
18623;SDS011;9441;51.420;7.036;2022-12-29T05:45:54;3.13;;;0.87;;
18623;SDS011;9441;51.420;7.036;2022-12-29T05:47:10;2.37;;;0.80;;
18623;SDS011;9441;51.420;7.036;2022-12-29T05:48:20;2.57;;;1.10;;
18623;SDS011;9441;51.420;7.036;2022-12-29T05:49:37;3.63;;;1.10;;
18623;SDS011;9441;51.420;7.036;2022-12-29T05:50:52;7.50;;;1.20;;
18623;SDS011;9441;51.420;7.036;2022-12-29T05:51:58;2.27;;;1.10;;
18623;SDS011;9441;51.420;7.036;2022-12-29T05:53:03;1.20;;;0.83;;
18623;SDS011;9441;51.420;7.036;2022-12-29T05:54:05;1.57;;;1.03;;
18623;SDS011;9441;51.420;7.036;2022-12-29T05:55:08;1.43;;;0.70;;
18623;SDS011;9441;51.420;7.036;2022-12-29T05:56:11;2.90;;;1.03;;
18623;SDS011;9441;51.420;7.036;2022-12-29T05:57:14;2.20;;;1.10;;
18623;SDS011;9441;51.420;7.036;2022-12-29T05:58:18;2.93;;;1.00;;
18623;SDS011;9441;51.420;7.036;2022-12-29T05:59:21;2.17;;;1.00;;
18623;SDS011;9441;51.420;7.036;2022-12-29T06:00:22;1.63;;;0.90;;
18623;SDS011;9441;51.420;7.036;2022-12-29T06:01:24;2.10;;;0.73;;
18623;SDS011;9441;51.420;7.036;2022-12-29T06:02:26;3.60;;;0.90;;
18623;SDS011;9441;51.420;7.036;2022-12-29T06:03:28;1.30;;;0.97;;
18623;SDS011;9441;51.420;7.036;2022-12-29T06:04:29;3.20;;;1.00;;
18623;SDS011;9441;51.420;7.036;2022-12-29T06:05:31;3.83;;;1.20;;
18623;SDS011;9441;51.420;7.036;2022-12-29T06:06:32;3.33;;;1.00;;
18623;SDS011;9441;51.420;7.036;2022-12-29T06:07:34;1.73;;;1.00;;
18623;SDS011;9441;51.420;7.036;2022-12-29T06:08:37;2.77;;;1.10;;
18623;SDS011;9441;51.420;7.036;2022-12-29T06:09:39;1.57;;;0.73;;
18623;SDS011;9441;51.420;7.036;2022-12-29T06:10:41;2.63;;;1.00;;
18623;SDS011;9441;51.420;7.036;2022-12-29T06:11:43;3.47;;;1.00;;
18623;SDS011;9441;51.420;7.036;2022-12-29T06:12:44;1.23;;;0.87;;
18623;SDS011;9441;51.420;7.036;2022-12-29T06:13:48;2.20;;;0.90;;
18623;SDS011;9441;51.420;7.036;2022-12-29T06:14:49;3.27;;;0.90;;
18623;SDS011;9441;51.420;7.036;2022-12-29T06:15:51;0.70;;;0.70;;
18623;SDS011;9441;51.420;7.036;2022-12-29T06:16:53;3.50;;;0.93;;
18623;SDS011;9441;51.420;7.036;2022-12-29T06:17:55;3.03;;;1.00;;
18623;SDS011;9441;51.420;7.036;2022-12-29T06:18:57;4.70;;;0.87;;
18623;SDS011;9441;51.420;7.036;2022-12-29T06:19:59;1.93;;;0.93;;
18623;SDS011;9441;51.420;7.036;2022-12-29T06:21:00;1.53;;;0.80;;
18623;SDS011;9441;51.420;7.036;2022-12-29T06:22:03;0.80;;;0.80;;
18623;SDS011;9441;51.420;7.036;2022-12-29T06:23:08;2.80;;;0.90;;
18623;SDS011;9441;51.420;7.036;2022-12-29T06:24:10;2.20;;;1.10;;
18623;SDS011;9441;51.420;7.036;2022-12-29T06:25:13;1.73;;;0.87;;
18623;SDS011;9441;51.420;7.036;2022-12-29T06:26:16;1.87;;;0.80;;
18623;SDS011;9441;51.420;7.036;2022-12-29T06:27:20;2.87;;;1.00;;
18623;SDS011;9441;51.420;7.036;2022-12-29T06:28:22;1.87;;;0.90;;
18623;SDS011;9441;51.420;7.036;2022-12-29T06:29:24;2.83;;;1.00;;
18623;SDS011;9441;51.420;7.036;2022-12-29T06:30:25;3.13;;;0.93;;
18623;SDS011;9441;51.420;7.036;2022-12-29T06:31:28;2.43;;;1.10;;
18623;SDS011;9441;51.420;7.036;2022-12-29T06:32:29;3.83;;;1.00;;
18623;SDS011;9441;51.420;7.036;2022-12-29T06:33:36;3.97;;;1.03;;
18623;SDS011;9441;51.420;7.036;2022-12-29T06:34:38;5.30;;;1.00;;
18623;SDS011;9441;51.420;7.036;2022-12-29T06:35:41;2.17;;;0.90;;
18623;SDS011;9441;51.420;7.036;2022-12-29T06:36:42;2.97;;;0.80;;
18623;SDS011;9441;51.420;7.036;2022-12-29T06:37:44;1.90;;;0.77;;
18623;SDS011;9441;51.420;7.036;2022-12-29T06:38:46;4.53;;;1.77;;
18623;SDS011;9441;51.420;7.036;2022-12-29T06:39:49;3.80;;;1.10;;
18623;SDS011;9441;51.420;7.036;2022-12-29T06:40:50;2.40;;;1.00;;
18623;SDS011;9441;51.420;7.036;2022-12-29T06:42:08;2.57;;;1.00;;
18623;SDS011;9441;51.420;7.036;2022-12-29T06:43:17;5.80;;;1.00;;
18623;SDS011;9441;51.420;7.036;2022-12-29T06:44:42;2.53;;;0.70;;
18623;SDS011;9441;51.420;7.036;2022-12-29T06:45:44;3.03;;;1.03;;
18623;SDS011;9441;51.420;7.036;2022-12-29T06:46:45;2.63;;;0.90;;
18623;SDS011;9441;51.420;7.036;2022-12-29T06:47:47;1.23;;;0.70;;
18623;SDS011;9441;51.420;7.036;2022-12-29T06:48:48;1.70;;;0.97;;
18623;SDS011;9441;51.420;7.036;2022-12-29T06:49:50;2.93;;;0.90;;
18623;SDS011;9441;51.420;7.036;2022-12-29T06:50:51;1.20;;;0.53;;